Linkebeek, Belgium
Current Conditions -  °F | °C
As of 10:50 AM on Sunday 26 Oct 2014 (Local Time) from EBBR Reporting Station
Scattered Clouds Scattered Clouds  
Wind Chill: 55°   Ceiling: Unl
Heat Index: 55°   Visibility: 6mi
Dew Point: 52°   Wind: 6mph
Humidity: 88%   Direction: 240°WSW
Pressure: 30.27"   Gusts: NA
Location:  50.77°N, 4.34°E
Report Text: EBBR 260850Z 24005KT 9999 SCT044 13/11 Q1025 NOSIG
Loading
Personal Weather Stations






























Interactive Weather Map
Tropical Storm Tracking
New forecast layout! Learn more

10-Day Weather Forecast

Advertisements
Track Severe Weather on mobile